Terminal Aerodrome Forecast
Issued by NWS

Home | Current Version | Previous Version | Text Only | Print | Product List | Glossary On
Versions: 1 2 3 4 5 6 7 8 9 10 11 12 13
000
FTUS43 KMPX 291722
TAFRNH
TAF
KRNH 291722Z 2918/3018 05010G17KT P6SM SCT150 BKN250
     FM300100 05009KT P6SM BKN100
     FM301200 06008G14KT P6SM OVC050
     FM301700 05015G22KT 6SM -RA OVC025=

USA.gov is the U.S. government's official web portal to all federal, state and local government web resources and services.